This is the latest recevied weather packets stored in our database for station/object WA4IKQ. If no packets are shown the sender has not sent any weather packets the latest 10 day(s).
| Time | Temp. | Humidity | Pressure | Rain* | Wind** | Luminosity | Snow |
|---|---|---|---|---|---|---|---|
| 1777731200 | 26.11° C | 68% | 1011.5 hPa | 0 mm | 1.79 m/s, 153° | - | - |
| 1777730980 | 25.56° C | 69% | 1011.5 hPa | 0 mm | 3.13 m/s, 125° | - | - |
| 1777730926 | 26.11° C | 68% | 1011.5 hPa | 0 mm | 1.79 m/s, 153° | - | - |
| 1777730522 | 25.56° C | 71% | 1011.4 hPa | 0 mm | 2.68 m/s, 187° | - | - |
| 1777730330 | 25.56° C | 71% | 1011.4 hPa | 0 mm | 2.68 m/s, 187° | - | - |
| 1777729818 | 25.56° C | 75% | 1011.3 hPa | 0 mm | 1.79 m/s, 201° | - | - |
| 1777729728 | 25.56° C | 75% | 1011.3 hPa | 0 mm | 1.79 m/s, 138° | - | - |
| 1777729402 | 25° C | 77% | 1011.3 hPa | 0 mm | 2.24 m/s, 166° | - | - |
| 1777729135 | 25° C | 77% | 1011.3 hPa | 0 mm | 2.24 m/s, 166° | - | - |
| 1777729085 | 25° C | 77% | 1011 hPa | 0 mm | 1.34 m/s, 180° | - | - |
| 1777728826 | 25° C | 77% | 1011 hPa | 0 mm | 1.34 m/s, 180° | - | - |
| 1777728715 | 25° C | 78% | 1011 hPa | 0 mm | 3.13 m/s, 150° | - | - |
| 1777728547 | 25° C | 79% | 1010.7 hPa | 0 mm | 0.89 m/s, 169° | - | - |
| 1777728526 | 25° C | 78% | 1011 hPa | 0 mm | 3.13 m/s, 150° | - | - |
| 1777728227 | 25° C | 79% | 1010.7 hPa | 0 mm | 0.89 m/s, 169° | - | - |
| 1777727997 | 24.44° C | 81% | 1010.6 hPa | 0 mm | 3.58 m/s, 180° | - | - |
| 1777727927 | 25° C | 80% | 1010.7 hPa | 0 mm | 2.24 m/s, 148° | - | - |
| 1777727627 | 24.44° C | 81% | 1010.6 hPa | 0 mm | 3.58 m/s, 180° | - | - |
| 1777726726 | 24.44° C | 84% | 1010.5 hPa | 0 mm | 3.58 m/s, 125° | - | - |
| 1777726723 | 24.44° C | 85% | 1010.5 hPa | 0 mm | 0.45 m/s, 66° | - | - |
| 1777726426 | 24.44° C | 85% | 1010.5 hPa | 0 mm | 0.45 m/s, 66° | - | - |
| 1777725892 | 23.89° C | 88% | 1010.3 hPa | 0 mm | 1.34 m/s, 211° | - | - |
| 1777725527 | 23.89° C | 88% | 1010.3 hPa | 0 mm | 1.34 m/s, 211° | - | - |
| 1777725227 | 23.33° C | 89% | 1010.4 hPa | 0 mm | 2.68 m/s, 152° | - | - |
| 1777724421 | 23.33° C | 90% | 1010.3 hPa | 0 mm | 0.45 m/s, 167° | - | - |
* Rain latest hour (hover to see other rain measurements)
** Current wind speed in m/s (hover to see current wind gust speed)